sensor_id;sensor_type;location;lat;lon;timestamp;pressure;altitude;pressure_sealevel;temperature;humidity
65557;BME280;52200;53.490;14.376;2023-07-02T00:02:25;100012.44;;;17.20;100.00
65557;BME280;52200;53.490;14.376;2023-07-02T00:04:51;100009.59;;;17.12;100.00
65557;BME280;52200;53.490;14.376;2023-07-02T00:07:16;100000.63;;;17.17;100.00
65557;BME280;52200;53.490;14.376;2023-07-02T00:09:42;100015.16;;;17.31;100.00
65557;BME280;52200;53.490;14.376;2023-07-02T00:12:07;100010.09;;;17.43;100.00
65557;BME280;52200;53.490;14.376;2023-07-02T00:14:33;100006.09;;;17.38;100.00
65557;BME280;52200;53.490;14.376;2023-07-02T00:16:58;100006.00;;;17.14;100.00
65557;BME280;52200;53.490;14.376;2023-07-02T00:19:24;100018.59;;;17.04;100.00
65557;BME280;52200;53.490;14.376;2023-07-02T00:21:50;100011.81;;;17.03;100.00
65557;BME280;52200;53.490;14.376;2023-07-02T00:24:15;100010.16;;;17.02;100.00
65557;BME280;52200;53.490;14.376;2023-07-02T00:26:41;100004.53;;;17.10;100.00
65557;BME280;52200;53.490;14.376;2023-07-02T00:29:08;100015.41;;;17.01;100.00
65557;BME280;52200;53.490;14.376;2023-07-02T00:31:34;100011.81;;;17.03;100.00
65557;BME280;52200;53.490;14.376;2023-07-02T00:34:00;100007.19;;;17.08;100.00
65557;BME280;52200;53.490;14.376;2023-07-02T00:36:26;100013.06;;;17.23;100.00
65557;BME280;52200;53.490;14.376;2023-07-02T00:38:52;100015.44;;;17.27;100.00
65557;BME280;52200;53.490;14.376;2023-07-02T00:41:17;100012.25;;;17.23;100.00
65557;BME280;52200;53.490;14.376;2023-07-02T00:43:43;100010.69;;;17.07;100.00
65557;BME280;52200;53.490;14.376;2023-07-02T00:46:16;100014.69;;;16.99;100.00
65557;BME280;52200;53.490;14.376;2023-07-02T00:48:49;100014.69;;;16.99;100.00
65557;BME280;52200;53.490;14.376;2023-07-02T00:51:17;100018.00;;;16.86;100.00
65557;BME280;52200;53.490;14.376;2023-07-02T00:53:45;100014.75;;;16.84;100.00
65557;BME280;52200;53.490;14.376;2023-07-02T00:56:11;100014.69;;;16.71;100.00
65557;BME280;52200;53.490;14.376;2023-07-02T00:58:39;100017.06;;;16.74;100.00
65557;BME280;52200;53.490;14.376;2023-07-02T01:01:05;100018.50;;;16.79;100.00
65557;BME280;52200;53.490;14.376;2023-07-02T01:03:31;100016.56;;;16.82;100.00
65557;BME280;52200;53.490;14.376;2023-07-02T01:06:01;100020.88;;;16.82;100.00
65557;BME280;52200;53.490;14.376;2023-07-02T01:08:28;100005.66;;;16.93;100.00
65557;BME280;52200;53.490;14.376;2023-07-02T01:10:53;100003.59;;;16.98;100.00
65557;BME280;52200;53.490;14.376;2023-07-02T01:13:21;100010.47;;;16.98;100.00
65557;BME280;52200;53.490;14.376;2023-07-02T01:15:49;100002.31;;;16.91;100.00
65557;BME280;52200;53.490;14.376;2023-07-02T01:18:15;100000.91;;;16.87;100.00
65557;BME280;52200;53.490;14.376;2023-07-02T01:20:41;100004.84;;;17.05;100.00
65557;BME280;52200;53.490;14.376;2023-07-02T01:23:07;100015.44;;;16.86;100.00
65557;BME280;52200;53.490;14.376;2023-07-02T01:25:34;100009.56;;;16.71;100.00
65557;BME280;52200;53.490;14.376;2023-07-02T01:28:02;100016.28;;;16.87;100.00
65557;BME280;52200;53.490;14.376;2023-07-02T01:30:28;100019.41;;;16.92;100.00
65557;BME280;52200;53.490;14.376;2023-07-02T01:32:53;100018.00;;;16.73;100.00
65557;BME280;52200;53.490;14.376;2023-07-02T01:35:19;100012.03;;;16.73;100.00
65557;BME280;52200;53.490;14.376;2023-07-02T01:37:44;100010.88;;;16.64;100.00
65557;BME280;52200;53.490;14.376;2023-07-02T01:40:10;100008.94;;;16.40;100.00
65557;BME280;52200;53.490;14.376;2023-07-02T01:42:36;100007.13;;;16.42;100.00
65557;BME280;52200;53.490;14.376;2023-07-02T01:45:01;100009.53;;;16.31;100.00
65557;BME280;52200;53.490;14.376;2023-07-02T01:47:26;100009.84;;;16.39;100.00
65557;BME280;52200;53.490;14.376;2023-07-02T01:49:52;100014.22;;;16.52;100.00
65557;BME280;52200;53.490;14.376;2023-07-02T01:52:17;100010.75;;;16.53;100.00
65557;BME280;52200;53.490;14.376;2023-07-02T01:54:43;100014.91;;;16.41;100.00
65557;BME280;52200;53.490;14.376;2023-07-02T01:57:09;100018.63;;;16.22;100.00
65557;BME280;52200;53.490;14.376;2023-07-02T01:59:35;100026.63;;;16.45;100.00
65557;BME280;52200;53.490;14.376;2023-07-02T02:02:01;100024.91;;;16.31;100.00
65557;BME280;52200;53.490;14.376;2023-07-02T02:04:26;100022.91;;;16.22;100.00
65557;BME280;52200;53.490;14.376;2023-07-02T02:06:52;100025.56;;;16.35;100.00
65557;BME280;52200;53.490;14.376;2023-07-02T02:09:17;100033.69;;;16.27;100.00
65557;BME280;52200;53.490;14.376;2023-07-02T02:11:46;100029.31;;;16.15;100.00
65557;BME280;52200;53.490;14.376;2023-07-02T02:14:12;100035.03;;;16.05;100.00
65557;BME280;52200;53.490;14.376;2023-07-02T02:16:37;100035.50;;;15.98;100.00
65557;BME280;52200;53.490;14.376;2023-07-02T02:19:03;100038.50;;;16.04;100.00
65557;BME280;52200;53.490;14.376;2023-07-02T02:21:29;100035.41;;;15.85;100.00
65557;BME280;52200;53.490;14.376;2023-07-02T02:23:54;100039.97;;;15.94;100.00
65557;BME280;52200;53.490;14.376;2023-07-02T02:26:23;100044.53;;;15.89;100.00
65557;BME280;52200;53.490;14.376;2023-07-02T02:28:50;100047.19;;;15.87;100.00
65557;BME280;52200;53.490;14.376;2023-07-02T02:31:16;100049.50;;;15.92;100.00
65557;BME280;52200;53.490;14.376;2023-07-02T02:33:42;100039.94;;;15.79;100.00
65557;BME280;52200;53.490;14.376;2023-07-02T02:36:08;100045.06;;;15.79;100.00
65557;BME280;52200;53.490;14.376;2023-07-02T02:38:33;100049.47;;;15.63;100.00
65557;BME280;52200;53.490;14.376;2023-07-02T02:40:59;100058.06;;;15.62;100.00
65557;BME280;52200;53.490;14.376;2023-07-02T02:43:25;100049.84;;;15.57;100.00
65557;BME280;52200;53.490;14.376;2023-07-02T02:45:51;100055.38;;;15.49;100.00
65557;BME280;52200;53.490;14.376;2023-07-02T02:48:16;100063.16;;;15.47;100.00
65557;BME280;52200;53.490;14.376;2023-07-02T02:50:42;100062.53;;;15.58;100.00
65557;BME280;52200;53.490;14.376;2023-07-02T02:53:08;100056.56;;;15.43;100.00
65557;BME280;52200;53.490;14.376;2023-07-02T02:55:33;100051.53;;;15.42;100.00
65557;BME280;52200;53.490;14.376;2023-07-02T02:57:59;100055.03;;;15.41;100.00
65557;BME280;52200;53.490;14.376;2023-07-02T03:00:24;100059.66;;;15.34;100.00
65557;BME280;52200;53.490;14.376;2023-07-02T03:02:50;100063.47;;;15.27;100.00
65557;BME280;52200;53.490;14.376;2023-07-02T03:05:15;100060.31;;;15.38;100.00
65557;BME280;52200;53.490;14.376;2023-07-02T03:07:41;100063.47;;;15.27;100.00
65557;BME280;52200;53.490;14.376;2023-07-02T03:10:07;100068.53;;;15.28;100.00
65557;BME280;52200;53.490;14.376;2023-07-02T03:12:32;100079.84;;;15.08;100.00
65557;BME280;52200;53.490;14.376;2023-07-02T03:14:57;100078.69;;;15.14;100.00
65557;BME280;52200;53.490;14.376;2023-07-02T03:17:23;100065.34;;;15.09;100.00
65557;BME280;52200;53.490;14.376;2023-07-02T03:19:49;100069.56;;;15.10;100.00
65557;BME280;52200;53.490;14.376;2023-07-02T03:22:14;100060.88;;;15.12;100.00
65557;BME280;52200;53.490;14.376;2023-07-02T03:24:39;100066.34;;;15.06;100.00
65557;BME280;52200;53.490;14.376;2023-07-02T03:27:05;100069.97;;;15.02;100.00
65557;BME280;52200;53.490;14.376;2023-07-02T03:29:32;100073.28;;;15.04;100.00
65557;BME280;52200;53.490;14.376;2023-07-02T03:31:57;100068.78;;;15.24;100.00
65557;BME280;52200;53.490;14.376;2023-07-02T03:34:23;100071.44;;;15.22;100.00
65557;BME280;52200;53.490;14.376;2023-07-02T03:36:49;100075.81;;;15.20;100.00
65557;BME280;52200;53.490;14.376;2023-07-02T03:39:15;100083.16;;;15.10;100.00
65557;BME280;52200;53.490;14.376;2023-07-02T03:41:40;100088.69;;;15.19;100.00
65557;BME280;52200;53.490;14.376;2023-07-02T03:44:05;100091.03;;;15.07;100.00
65557;BME280;52200;53.490;14.376;2023-07-02T03:46:31;100095.75;;;14.99;100.00
65557;BME280;52200;53.490;14.376;2023-07-02T03:48:57;100096.06;;;14.93;100.00
65557;BME280;52200;53.490;14.376;2023-07-02T03:51:22;100097.41;;;15.00;100.00
65557;BME280;52200;53.490;14.376;2023-07-02T03:53:48;100098.16;;;15.17;100.00
65557;BME280;52200;53.490;14.376;2023-07-02T03:56:13;100101.97;;;15.09;100.00
65557;BME280;52200;53.490;14.376;2023-07-02T03:58:41;100108.09;;;15.07;100.00
65557;BME280;52200;53.490;14.376;2023-07-02T04:01:07;100114.53;;;14.98;100.00
65557;BME280;52200;53.490;14.376;2023-07-02T04:03:32;100111.84;;;15.01;100.00
65557;BME280;52200;53.490;14.376;2023-07-02T04:05:57;100107.63;;;15.00;100.00
65557;BME280;52200;53.490;14.376;2023-07-02T04:08:23;100112.22;;;14.93;100.00
65557;BME280;52200;53.490;14.376;2023-07-02T04:10:50;100110.56;;;15.08;100.00
65557;BME280;52200;53.490;14.376;2023-07-02T04:13:15;100110.28;;;15.29;100.00
65557;BME280;52200;53.490;14.376;2023-07-02T04:15:41;100106.97;;;15.27;100.00
65557;BME280;52200;53.490;14.376;2023-07-02T04:18:06;100120.34;;;15.32;100.00
65557;BME280;52200;53.490;14.376;2023-07-02T04:20:31;100124.28;;;15.38;100.00
65557;BME280;52200;53.490;14.376;2023-07-02T04:22:57;100117.94;;;15.29;99.29
65557;BME280;52200;53.490;14.376;2023-07-02T04:25:23;100121.25;;;15.31;98.83
65557;BME280;52200;53.490;14.376;2023-07-02T04:27:48;100120.56;;;15.43;98.76
65557;BME280;52200;53.490;14.376;2023-07-02T04:30:14;100115.03;;;15.80;97.73
65557;BME280;52200;53.490;14.376;2023-07-02T04:32:39;100119.84;;;16.15;95.26
65557;BME280;52200;53.490;14.376;2023-07-02T04:35:06;100114.31;;;16.36;93.45
65557;BME280;52200;53.490;14.376;2023-07-02T04:37:31;100119.34;;;16.52;93.02
65557;BME280;52200;53.490;14.376;2023-07-02T04:39:57;100117.28;;;16.71;92.24
65557;BME280;52200;53.490;14.376;2023-07-02T04:42:23;100120.63;;;16.59;92.14
65557;BME280;52200;53.490;14.376;2023-07-02T04:44:55;100115.72;;;16.41;91.81
65557;BME280;52200;53.490;14.376;2023-07-02T04:47:21;100113.44;;;16.64;91.16
65557;BME280;52200;53.490;14.376;2023-07-02T04:49:46;100114.59;;;16.46;91.87
65557;BME280;52200;53.490;14.376;2023-07-02T04:52:11;100117.19;;;16.31;93.01
65557;BME280;52200;53.490;14.376;2023-07-02T04:54:37;100123.66;;;16.51;92.77
65557;BME280;52200;53.490;14.376;2023-07-02T04:57:03;100117.91;;;16.33;92.22
65557;BME280;52200;53.490;14.376;2023-07-02T04:59:28;100128.94;;;16.63;91.25
65557;BME280;52200;53.490;14.376;2023-07-02T05:01:53;100115.47;;;16.73;91.54
65557;BME280;52200;53.490;14.376;2023-07-02T05:04:19;100124.59;;;16.77;91.32
65557;BME280;52200;53.490;14.376;2023-07-02T05:06:44;100123.06;;;16.75;92.46
65557;BME280;52200;53.490;14.376;2023-07-02T05:09:09;100115.56;;;16.72;91.69
65557;BME280;52200;53.490;14.376;2023-07-02T05:11:35;100112.31;;;16.83;92.56
65557;BME280;52200;53.490;14.376;2023-07-02T05:14:00;100112.28;;;16.97;91.96
65557;BME280;52200;53.490;14.376;2023-07-02T05:16:25;100107.41;;;17.20;91.17
65557;BME280;52200;53.490;14.376;2023-07-02T05:18:51;100116.13;;;17.17;91.12
65557;BME280;52200;53.490;14.376;2023-07-02T05:21:20;100113.34;;;17.07;89.63
65557;BME280;52200;53.490;14.376;2023-07-02T05:23:45;100111.91;;;17.44;88.66
65557;BME280;52200;53.490;14.376;2023-07-02T05:26:11;100109.47;;;17.81;87.30
65557;BME280;52200;53.490;14.376;2023-07-02T05:28:36;100117.44;;;17.50;86.75
65557;BME280;52200;53.490;14.376;2023-07-02T05:31:01;100116.50;;;17.38;87.79
65557;BME280;52200;53.490;14.376;2023-07-02T05:33:27;100120.94;;;17.49;86.88
65557;BME280;52200;53.490;14.376;2023-07-02T05:35:52;100128.44;;;17.52;86.33
65557;BME280;52200;53.490;14.376;2023-07-02T05:38:18;100124.47;;;18.00;84.92
65557;BME280;52200;53.490;14.376;2023-07-02T05:40:44;100137.19;;;18.64;83.10
65557;BME280;52200;53.490;14.376;2023-07-02T05:43:10;100137.84;;;18.05;83.85
65557;BME280;52200;53.490;14.376;2023-07-02T05:45:35;100145.19;;;17.58;85.87
65557;BME280;52200;53.490;14.376;2023-07-02T05:48:00;100151.97;;;17.72;85.28
65557;BME280;52200;53.490;14.376;2023-07-02T05:50:26;100164.31;;;18.31;84.79
65557;BME280;52200;53.490;14.376;2023-07-02T05:52:51;100156.34;;;17.97;83.84
65557;BME280;52200;53.490;14.376;2023-07-02T05:55:17;100159.31;;;17.91;83.16
65557;BME280;52200;53.490;14.376;2023-07-02T05:57:42;100165.34;;;17.90;82.80
65557;BME280;52200;53.490;14.376;2023-07-02T06:00:08;100149.63;;;18.33;84.18
65557;BME280;52200;53.490;14.376;2023-07-02T06:02:33;100156.44;;;20.25;78.27
65557;BME280;52200;53.490;14.376;2023-07-02T06:04:59;100143.47;;;20.71;72.63
65557;BME280;52200;53.490;14.376;2023-07-02T06:07:24;100139.75;;;20.52;74.46
65557;BME280;52200;53.490;14.376;2023-07-02T06:09:50;100134.91;;;21.14;71.36
65557;BME280;52200;53.490;14.376;2023-07-02T06:12:15;100134.19;;;21.66;70.37
65557;BME280;52200;53.490;14.376;2023-07-02T06:14:41;100139.88;;;21.60;69.48
65557;BME280;52200;53.490;14.376;2023-07-02T06:17:07;100127.59;;;22.74;68.64
65557;BME280;52200;53.490;14.376;2023-07-02T06:19:33;100125.28;;;23.00;65.36
65557;BME280;52200;53.490;14.376;2023-07-02T06:21:58;100130.72;;;22.17;68.07
65557;BME280;52200;53.490;14.376;2023-07-02T06:24:24;100139.22;;;22.29;67.21
65557;BME280;52200;53.490;14.376;2023-07-02T06:26:49;100136.41;;;22.42;67.32
65557;BME280;52200;53.490;14.376;2023-07-02T06:29:14;100135.75;;;22.09;65.55
65557;BME280;52200;53.490;14.376;2023-07-02T06:31:40;100132.47;;;21.13;67.20
65557;BME280;52200;53.490;14.376;2023-07-02T06:34:05;100135.09;;;21.86;67.66
65557;BME280;52200;53.490;14.376;2023-07-02T06:36:31;100142.63;;;23.29;63.94
65557;BME280;52200;53.490;14.376;2023-07-02T06:38:56;100130.59;;;22.99;64.52
65557;BME280;52200;53.490;14.376;2023-07-02T06:41:22;100128.56;;;21.61;68.72
65557;BME280;52200;53.490;14.376;2023-07-02T06:43:48;100126.84;;;20.64;69.83
65557;BME280;52200;53.490;14.376;2023-07-02T06:46:13;100126.50;;;19.77;72.25
65557;BME280;52200;53.490;14.376;2023-07-02T06:48:38;100129.38;;;19.39;74.14
65557;BME280;52200;53.490;14.376;2023-07-02T06:51:04;100125.47;;;18.97;74.67
65557;BME280;52200;53.490;14.376;2023-07-02T06:53:29;100124.75;;;18.95;77.13
65557;BME280;52200;53.490;14.376;2023-07-02T06:55:54;100126.34;;;18.85;75.53
65557;BME280;52200;53.490;14.376;2023-07-02T06:58:20;100138.97;;;18.64;77.42
65557;BME280;52200;53.490;14.376;2023-07-02T07:00:45;100143.13;;;18.78;77.48
65557;BME280;52200;53.490;14.376;2023-07-02T07:03:11;100128.91;;;18.85;80.21
65557;BME280;52200;53.490;14.376;2023-07-02T07:05:36;100145.22;;;19.45;77.31
65557;BME280;52200;53.490;14.376;2023-07-02T07:08:02;100138.63;;;19.88;74.66
65557;BME280;52200;53.490;14.376;2023-07-02T07:10:28;100132.03;;;20.52;73.02
65557;BME280;52200;53.490;14.376;2023-07-02T07:12:53;100140.59;;;19.96;72.39
65557;BME280;52200;53.490;14.376;2023-07-02T07:15:19;100151.22;;;19.69;74.53
65557;BME280;52200;53.490;14.376;2023-07-02T07:17:44;100143.63;;;19.31;74.03
65557;BME280;52200;53.490;14.376;2023-07-02T07:20:10;100149.09;;;19.74;74.39
65557;BME280;52200;53.490;14.376;2023-07-02T07:22:35;100133.31;;;19.31;74.14
65557;BME280;52200;53.490;14.376;2023-07-02T07:25:01;100152.63;;;19.01;74.89
65557;BME280;52200;53.490;14.376;2023-07-02T07:27:26;100145.94;;;19.23;76.81
65557;BME280;52200;53.490;14.376;2023-07-02T07:29:51;100158.78;;;19.83;74.19
65557;BME280;52200;53.490;14.376;2023-07-02T07:32:17;100157.16;;;20.05;73.15
65557;BME280;52200;53.490;14.376;2023-07-02T07:34:42;100152.56;;;19.50;71.08
65557;BME280;52200;53.490;14.376;2023-07-02T07:37:08;100153.41;;;19.86;70.75
65557;BME280;52200;53.490;14.376;2023-07-02T07:39:33;100156.16;;;19.72;71.00
65557;BME280;52200;53.490;14.376;2023-07-02T07:41:58;100152.69;;;19.84;70.16
65557;BME280;52200;53.490;14.376;2023-07-02T07:44:24;100154.50;;;19.82;70.52
65557;BME280;52200;53.490;14.376;2023-07-02T07:46:54;100153.97;;;19.90;71.02
65557;BME280;52200;53.490;14.376;2023-07-02T07:49:21;100155.63;;;20.02;70.06
65557;BME280;52200;53.490;14.376;2023-07-02T07:51:46;100162.53;;;19.43;68.69
65557;BME280;52200;53.490;14.376;2023-07-02T07:54:11;100166.28;;;18.78;69.10
65557;BME280;52200;53.490;14.376;2023-07-02T07:56:37;100160.81;;;18.95;69.96
65557;BME280;52200;53.490;14.376;2023-07-02T07:59:02;100163.59;;;19.16;69.59
65557;BME280;52200;53.490;14.376;2023-07-02T08:01:27;100159.22;;;19.41;68.46
65557;BME280;52200;53.490;14.376;2023-07-02T08:03:53;100153.56;;;19.72;68.68
65557;BME280;52200;53.490;14.376;2023-07-02T08:06:18;100162.53;;;20.13;68.20
65557;BME280;52200;53.490;14.376;2023-07-02T08:08:44;100176.03;;;20.17;65.40
65557;BME280;52200;53.490;14.376;2023-07-02T08:11:09;100184.59;;;20.28;63.12
65557;BME280;52200;53.490;14.376;2023-07-02T08:13:35;100176.13;;;20.49;62.30
65557;BME280;52200;53.490;14.376;2023-07-02T08:16:00;100169.53;;;20.68;64.00
65557;BME280;52200;53.490;14.376;2023-07-02T08:18:25;100178.72;;;20.60;61.79
65557;BME280;52200;53.490;14.376;2023-07-02T08:20:51;100180.38;;;20.16;62.87
65557;BME280;52200;53.490;14.376;2023-07-02T08:23:16;100188.56;;;19.99;65.70
65557;BME280;52200;53.490;14.376;2023-07-02T08:25:41;100183.63;;;19.84;64.93
65557;BME280;52200;53.490;14.376;2023-07-02T08:28:07;100193.00;;;19.96;65.70
65557;BME280;52200;53.490;14.376;2023-07-02T08:30:32;100189.53;;;19.73;62.15
65557;BME280;52200;53.490;14.376;2023-07-02T08:32:57;100178.59;;;20.73;62.59
65557;BME280;52200;53.490;14.376;2023-07-02T08:35:23;100183.09;;;21.04;60.59
65557;BME280;52200;53.490;14.376;2023-07-02T08:37:48;100188.16;;;21.26;58.73
65557;BME280;52200;53.490;14.376;2023-07-02T08:40:20;100184.47;;;20.75;58.43
65557;BME280;52200;53.490;14.376;2023-07-02T08:42:46;100196.97;;;20.69;58.03
65557;BME280;52200;53.490;14.376;2023-07-02T08:45:15;100197.22;;;20.43;59.88
65557;BME280;52200;53.490;14.376;2023-07-02T08:47:44;100202.19;;;20.46;59.73
65557;BME280;52200;53.490;14.376;2023-07-02T08:50:13;100203.13;;;21.12;58.93
65557;BME280;52200;53.490;14.376;2023-07-02T08:52:39;100202.28;;;21.76;59.30
65557;BME280;52200;53.490;14.376;2023-07-02T08:55:04;100200.63;;;21.75;57.33
65557;BME280;52200;53.490;14.376;2023-07-02T08:57:30;100203.91;;;22.29;57.18
65557;BME280;52200;53.490;14.376;2023-07-02T08:59:55;100211.75;;;22.18;57.12
65557;BME280;52200;53.490;14.376;2023-07-02T09:02:33;100218.88;;;21.41;54.92
65557;BME280;52200;53.490;14.376;2023-07-02T09:05:00;100203.31;;;21.52;55.13
65557;BME280;52200;53.490;14.376;2023-07-02T09:07:25;100215.06;;;21.78;57.30
65557;BME280;52200;53.490;14.376;2023-07-02T09:09:51;100203.63;;;21.38;56.34
65557;BME280;52200;53.490;14.376;2023-07-02T09:12:25;100201.47;;;21.43;56.50
65557;BME280;52200;53.490;14.376;2023-07-02T09:14:59;100197.94;;;20.79;57.82
65557;BME280;52200;53.490;14.376;2023-07-02T09:17:35;100196.78;;;20.72;57.90
65557;BME280;52200;53.490;14.376;2023-07-02T09:20:03;100202.56;;;21.08;58.43
65557;BME280;52200;53.490;14.376;2023-07-02T09:22:30;100203.41;;;21.83;59.30
65557;BME280;52200;53.490;14.376;2023-07-02T09:24:57;100199.31;;;21.81;58.78
65557;BME280;52200;53.490;14.376;2023-07-02T09:27:36;100204.09;;;21.85;57.78
65557;BME280;52200;53.490;14.376;2023-07-02T09:30:06;100193.00;;;22.26;55.46
65557;BME280;52200;53.490;14.376;2023-07-02T09:32:32;100208.53;;;21.73;54.33
65557;BME280;52200;53.490;14.376;2023-07-02T09:34:58;100218.06;;;21.40;55.18
65557;BME280;52200;53.490;14.376;2023-07-02T09:37:23;100220.41;;;21.44;55.67
65557;BME280;52200;53.490;14.376;2023-07-02T09:39:50;100218.19;;;21.39;55.14
65557;BME280;52200;53.490;14.376;2023-07-02T09:42:16;100215.50;;;22.04;55.60
65557;BME280;52200;53.490;14.376;2023-07-02T09:44:45;100204.31;;;22.65;53.53
65557;BME280;52200;53.490;14.376;2023-07-02T09:47:12;100214.91;;;23.32;58.26
65557;BME280;52200;53.490;14.376;2023-07-02T09:49:40;100207.78;;;23.15;53.52
65557;BME280;52200;53.490;14.376;2023-07-02T09:52:08;100222.66;;;22.93;53.56
65557;BME280;52200;53.490;14.376;2023-07-02T09:54:35;100224.00;;;22.88;52.89
65557;BME280;52200;53.490;14.376;2023-07-02T09:57:01;100228.03;;;23.31;52.66
65557;BME280;52200;53.490;14.376;2023-07-02T09:59:27;100223.22;;;22.46;52.38
65557;BME280;52200;53.490;14.376;2023-07-02T10:01:53;100216.88;;;22.08;54.85
65557;BME280;52200;53.490;14.376;2023-07-02T10:04:21;100212.53;;;22.09;53.63
65557;BME280;52200;53.490;14.376;2023-07-02T10:06:50;100217.03;;;22.16;56.27
65557;BME280;52200;53.490;14.376;2023-07-02T10:09:17;100202.91;;;21.89;56.07
65557;BME280;52200;53.490;14.376;2023-07-02T10:11:43;100217.75;;;21.34;57.19
65557;BME280;52200;53.490;14.376;2023-07-02T10:14:09;100214.91;;;21.04;59.25
65557;BME280;52200;53.490;14.376;2023-07-02T10:16:34;100217.16;;;20.98;57.80
65557;BME280;52200;53.490;14.376;2023-07-02T10:19:13;100217.28;;;21.61;58.31
65557;BME280;52200;53.490;14.376;2023-07-02T10:21:38;100218.84;;;21.95;55.83
65557;BME280;52200;53.490;14.376;2023-07-02T10:24:14;100208.69;;;22.34;56.61
65557;BME280;52200;53.490;14.376;2023-07-02T10:27:00;100213.34;;;22.71;56.82
65557;BME280;52200;53.490;14.376;2023-07-02T10:29:27;100212.19;;;21.92;54.24
65557;BME280;52200;53.490;14.376;2023-07-02T10:31:54;100213.88;;;21.61;55.40
65557;BME280;52200;53.490;14.376;2023-07-02T10:36:55;100210.84;;;22.69;55.12
65557;BME280;52200;53.490;14.376;2023-07-02T10:39:21;100205.47;;;23.02;53.10
65557;BME280;52200;53.490;14.376;2023-07-02T10:41:46;100203.84;;;23.50;53.73
65557;BME280;52200;53.490;14.376;2023-07-02T10:44:12;100212.28;;;22.83;53.40
65557;BME280;52200;53.490;14.376;2023-07-02T10:46:47;100215.50;;;22.04;53.85
65557;BME280;52200;53.490;14.376;2023-07-02T10:49:14;100218.44;;;21.89;53.80
65557;BME280;52200;53.490;14.376;2023-07-02T10:51:39;100221.16;;;21.55;52.71
65557;BME280;52200;53.490;14.376;2023-07-02T10:54:05;100227.63;;;21.61;52.53
65557;BME280;52200;53.490;14.376;2023-07-02T10:56:31;100228.50;;;21.71;56.90
65557;BME280;52200;53.490;14.376;2023-07-02T10:58:57;100223.84;;;21.86;53.48
65557;BME280;52200;53.490;14.376;2023-07-02T11:04:03;100215.81;;;22.11;50.97
65557;BME280;52200;53.490;14.376;2023-07-02T11:06:31;100225.09;;;22.13;49.47
65557;BME280;52200;53.490;14.376;2023-07-02T11:08:57;100216.38;;;22.96;49.80
65557;BME280;52200;53.490;14.376;2023-07-02T11:11:23;100211.47;;;23.71;48.49
65557;BME280;52200;53.490;14.376;2023-07-02T11:13:50;100210.97;;;23.58;47.57
65557;BME280;52200;53.490;14.376;2023-07-02T11:18:49;100213.22;;;24.28;48.41
65557;BME280;52200;53.490;14.376;2023-07-02T11:21:15;100200.09;;;24.39;48.76
65557;BME280;52200;53.490;14.376;2023-07-02T11:23:40;100208.00;;;24.00;47.83
65557;BME280;52200;53.490;14.376;2023-07-02T11:26:06;100221.06;;;23.41;51.19
65557;BME280;52200;53.490;14.376;2023-07-02T11:28:32;100208.78;;;23.33;49.76
65557;BME280;52200;53.490;14.376;2023-07-02T11:30:59;100210.91;;;22.99;49.37
65557;BME280;52200;53.490;14.376;2023-07-02T11:33:37;100211.88;;;23.08;48.32
65557;BME280;52200;53.490;14.376;2023-07-02T11:36:04;100211.41;;;23.91;48.89
65557;BME280;52200;53.490;14.376;2023-07-02T11:38:29;100208.72;;;24.02;46.99
65557;BME280;52200;53.490;14.376;2023-07-02T11:40:55;100207.97;;;23.43;45.45
65557;BME280;52200;53.490;14.376;2023-07-02T11:43:20;100210.81;;;23.20;46.42
65557;BME280;52200;53.490;14.376;2023-07-02T11:45:45;100226.94;;;22.73;46.79
65557;BME280;52200;53.490;14.376;2023-07-02T11:48:11;100226.88;;;22.84;46.89
65557;BME280;52200;53.490;14.376;2023-07-02T11:50:37;100208.78;;;23.43;46.42
65557;BME280;52200;53.490;14.376;2023-07-02T11:53:03;100211.13;;;23.27;46.34
65557;BME280;52200;53.490;14.376;2023-07-02T11:55:28;100224.00;;;22.97;46.85
65557;BME280;52200;53.490;14.376;2023-07-02T11:57:54;100205.16;;;22.85;47.04
65557;BME280;52200;53.490;14.376;2023-07-02T12:00:19;100217.81;;;22.69;46.59
65557;BME280;52200;53.490;14.376;2023-07-02T12:02:45;100222.34;;;22.86;46.18
65557;BME280;52200;53.490;14.376;2023-07-02T12:05:10;100219.28;;;22.62;45.57
65557;BME280;52200;53.490;14.376;2023-07-02T12:07:35;100220.47;;;22.89;46.50
65557;BME280;52200;53.490;14.376;2023-07-02T12:10:01;100220.25;;;23.50;46.02
65557;BME280;52200;53.490;14.376;2023-07-02T12:12:26;100230.81;;;23.87;45.04
65557;BME280;52200;53.490;14.376;2023-07-02T12:14:52;100214.59;;;24.32;45.09
65557;BME280;52200;53.490;14.376;2023-07-02T12:17:17;100220.75;;;23.93;45.09
65557;BME280;52200;53.490;14.376;2023-07-02T12:19:43;100216.59;;;24.01;45.54
65557;BME280;52200;53.490;14.376;2023-07-02T12:22:08;100218.16;;;23.83;46.23
65557;BME280;52200;53.490;14.376;2023-07-02T12:24:33;100223.63;;;23.31;45.90
65557;BME280;52200;53.490;14.376;2023-07-02T12:26:59;100226.22;;;23.71;48.31
65557;BME280;52200;53.490;14.376;2023-07-02T12:29:24;100237.69;;;23.39;45.21
65557;BME280;52200;53.490;14.376;2023-07-02T12:31:50;100235.72;;;22.92;46.50
65557;BME280;52200;53.490;14.376;2023-07-02T12:34:15;100240.03;;;22.72;45.84
65557;BME280;52200;53.490;14.376;2023-07-02T12:36:41;100227.88;;;23.32;46.68
65557;BME280;52200;53.490;14.376;2023-07-02T12:39:06;100224.63;;;23.21;46.50